Lobo

Go HERE for most recent data if this page is not up to date.

Jump to table bottom
Date/Time Temp deg F RH % 24 Hr Snow (in) Snow Depth (in) H2O (in)
10/15 17:00 45.2 40 "NAN" 5.3 0.00
10/15 16:00 45.5 34 "NAN" 5.1 0.00
10/15 15:00 45.6 32 "NAN" 4.7 0.00
10/15 14:00 45.5 23 "NAN" 4.9 0.00
10/15 13:00 42.6 22 "NAN" 5.4 0.00
10/15 12:00 38.1 32 "NAN" 5.5 0.00
10/15 11:00 35.0 43 "NAN" 5.5 0.00
10/15 10:00 33.0 44 "NAN" 5.9 0.00
10/15 09:00 29.1 50 "NAN" 6.0 0.00
10/15 08:00 27.1 59 "NAN" 5.9 0.00
10/15 07:00 26.7 62 "NAN" 5.8 0.00
10/15 06:00 26.8 62 "NAN" 5.9 0.00
10/15 05:00 25.6 61 "NAN" 6.0 0.00
10/15 04:00 24.5 70 "NAN" 5.7 0.00
10/15 03:00 25.6 66 "NAN" 5.7 0.00
10/15 02:00 26.4 65 "NAN" 5.7 0.00
10/15 01:00 26.5 65 "NAN" 5.6 0.00
10/15 00:00 26.7 66 "NAN" 5.5 0.00
10/14 23:00 27.2 65 "NAN" 5.6 0.00
10/14 22:00 28.9 62 "NAN" 5.4 0.00
10/14 21:00 31.8 55 "NAN" 5.3 0.00
10/14 20:00 32.9 56 "NAN" 5.5 0.00
10/14 19:00 32.4 51 "NAN" 5.7 0.00
10/14 18:00 33.7 56 "NAN" 5.2 0.00
10/14 17:00 35.1 49 "NAN" 5.1 0.00
10/14 16:00 37.1 52 "NAN" 4.9 0.00
10/14 15:00 36.6 46 "NAN" 4.6 0.00
10/14 14:00 36.9 47 "NAN" 4.8 0.00
10/14 13:00 36.6 45 "NAN" 5.2 0.00
10/14 12:00 35.2 50 "NAN" 5.3 0.00
10/14 11:00 35.1 45 "NAN" 5.5 0.00
10/14 10:00 34.8 39 "NAN" 5.6 0.00
10/14 09:00 33.7 44 "NAN" 5.8 0.00
10/14 08:00 34.0 43 "NAN" 5.6 0.00
10/14 07:00 34.6 36 "NAN" 5.7 0.00
10/14 06:00 34.9 32 "NAN" 5.7 0.00
10/14 05:00 35.0 30 "NAN" 6.0 0.00
10/14 04:00 35.4 31 "NAN" 5.9 0.00
10/14 03:00 36.6 30 "NAN" 5.9 0.00
10/14 02:00 35.8 30 "NAN" 6.1 0.00
10/14 01:00 34.8 33 "NAN" 5.8 0.00
10/14 00:00 35.2 30 "NAN" 5.9 0.00
.